Ogdensburg, New York
Current Conditions -  °F | °C
As of 9:53 PM on Sunday 21 Dec 2014 (Local Time) from KMSS Reporting Station
Haze Haze  
Wind Chill: 18°   Ceiling: 600
Heat Index: 18°   Visibility: 6mi
Dew Point: 15°   Wind: 0mph
Humidity: 88%   Direction: NA
Pressure: 30.4"   Gusts: NA
Location:  44.69°N, 75.49°W
Report Text: KMSS 220253Z AUTO 00000KT 6SM BR OVC006 M08/M09 A3040 RMK AO2 SLP304 T10781094 51007
Loading
Personal Weather Stations






























Interactive Weather Map New forecast layout! Learn more

10-Day Weather Forecast

Advertisements
Track Severe Weather on mobile